createdAt,value
2022-09-26T00:00:52.663Z,0.00
2022-09-26T00:01:53.451Z,0.00
2022-09-26T00:02:54.225Z,0.00
2022-09-26T00:03:54.814Z,0.00
2022-09-26T00:04:55.418Z,0.00
2022-09-26T00:05:56.085Z,0.00
2022-09-26T00:06:56.649Z,0.00
2022-09-26T00:07:57.204Z,0.00
2022-09-26T00:08:57.778Z,0.00
2022-09-26T00:09:58.431Z,0.00
2022-09-26T00:10:58.996Z,0.00
2022-09-26T00:11:59.564Z,0.00
2022-09-26T00:13:00.136Z,0.00
2022-09-26T00:14:00.702Z,0.00
2022-09-26T00:15:01.389Z,0.00
2022-09-26T00:16:01.973Z,0.00
2022-09-26T00:17:02.622Z,0.00
2022-09-26T00:18:03.214Z,0.00
2022-09-26T00:19:03.775Z,0.00
2022-09-26T00:20:04.438Z,0.00
2022-09-26T00:21:05.023Z,0.00
2022-09-26T00:22:05.590Z,0.00
2022-09-26T00:23:06.164Z,0.00
2022-09-26T00:24:06.731Z,0.00
2022-09-26T00:25:07.417Z,0.00
2022-09-26T00:26:07.983Z,0.00
2022-09-26T00:27:08.541Z,0.00
2022-09-26T00:28:09.106Z,0.00
2022-09-26T00:29:09.745Z,0.00
2022-09-26T00:30:10.470Z,0.00
2022-09-26T00:31:11.115Z,0.00
2022-09-26T00:32:11.755Z,0.00
2022-09-26T00:33:12.315Z,0.00
2022-09-26T00:34:12.883Z,0.00
2022-09-26T00:35:13.483Z,0.00
2022-09-26T00:36:14.077Z,0.00
2022-09-26T00:37:14.640Z,0.00
2022-09-26T00:38:15.202Z,0.00
2022-09-26T00:39:15.930Z,0.00
2022-09-26T00:40:16.738Z,0.00
2022-09-26T00:41:17.348Z,0.00
2022-09-26T00:42:17.918Z,0.00
2022-09-26T00:43:18.492Z,0.00
2022-09-26T00:44:19.067Z,0.00
2022-09-26T00:45:19.763Z,0.00
2022-09-26T00:46:20.405Z,0.00
2022-09-26T00:47:21.058Z,0.00
2022-09-26T00:48:21.623Z,0.00
2022-09-26T00:49:22.189Z,0.00
2022-09-26T00:50:22.916Z,0.00
2022-09-26T00:51:23.563Z,0.00
2022-09-26T00:52:24.131Z,0.00
2022-09-26T00:53:24.704Z,0.00
2022-09-26T00:54:25.273Z,0.00
2022-09-26T00:55:25.864Z,0.00
2022-09-26T00:56:26.424Z,0.00
2022-09-26T00:57:27.002Z,0.00
2022-09-26T00:58:27.571Z,0.00
2022-09-26T00:59:28.145Z,0.00
2022-09-26T01:00:29.051Z,0.00
2022-09-26T01:01:29.795Z,0.00
2022-09-26T01:02:30.555Z,0.00
2022-09-26T01:03:31.187Z,0.00
2022-09-26T01:04:31.757Z,0.00
2022-09-26T01:05:32.359Z,0.00
2022-09-26T01:06:32.978Z,0.00
2022-09-26T01:07:33.547Z,0.00
2022-09-26T01:08:34.124Z,0.00
2022-09-26T01:09:34.681Z,0.00
2022-09-26T01:10:35.354Z,0.00
2022-09-26T01:11:35.910Z,0.00
2022-09-26T01:12:36.482Z,0.00
2022-09-26T01:13:37.066Z,0.00
2022-09-26T01:14:37.633Z,0.00
2022-09-26T01:15:38.342Z,0.00
2022-09-26T01:16:39.030Z,0.00
2022-09-26T01:17:39.643Z,0.00
2022-09-26T01:18:40.209Z,0.00
2022-09-26T01:19:40.774Z,0.00
2022-09-26T01:20:41.378Z,0.00
2022-09-26T01:21:41.975Z,0.00
2022-09-26T01:22:42.536Z,0.00
2022-09-26T01:23:43.104Z,0.00
2022-09-26T01:24:43.667Z,0.00
2022-09-26T01:25:44.286Z,0.00
2022-09-26T01:26:44.845Z,0.00
2022-09-26T01:27:45.397Z,0.00
2022-09-26T01:28:45.958Z,0.00
2022-09-26T01:29:46.519Z,0.00
2022-09-26T01:30:47.192Z,0.00
2022-09-26T01:31:47.792Z,0.00
2022-09-26T01:32:48.356Z,0.00
2022-09-26T01:33:48.923Z,0.00
2022-09-26T01:34:49.495Z,0.00
2022-09-26T01:35:50.102Z,0.00
2022-09-26T01:36:50.693Z,0.00
2022-09-26T01:37:51.255Z,0.00
2022-09-26T01:38:51.824Z,0.00
2022-09-26T01:39:52.393Z,0.00
2022-09-26T01:40:53.081Z,0.00
2022-09-26T01:41:53.656Z,0.00
2022-09-26T01:42:54.227Z,0.00
2022-09-26T01:43:54.791Z,0.00
2022-09-26T01:44:55.358Z,0.00
2022-09-26T01:45:56.123Z,0.00
2022-09-26T01:46:56.730Z,0.00
2022-09-26T01:47:57.303Z,0.00
2022-09-26T01:48:57.873Z,0.00
2022-09-26T01:49:58.454Z,0.00
2022-09-26T01:50:59.182Z,0.00
2022-09-26T01:51:59.773Z,0.00
2022-09-26T01:53:00.353Z,0.00
2022-09-26T01:54:00.915Z,0.00
2022-09-26T01:55:01.478Z,0.00
2022-09-26T01:56:02.076Z,0.00
2022-09-26T01:57:02.637Z,0.00
2022-09-26T01:58:03.208Z,0.00
2022-09-26T01:59:03.777Z,0.00
2022-09-26T02:00:04.344Z,0.00
2022-09-26T02:01:05.624Z,0.00
2022-09-26T02:02:05.824Z,0.00
2022-09-26T02:03:06.439Z,0.00
2022-09-26T02:04:07.004Z,0.00
2022-09-26T02:05:07.575Z,0.00
2022-09-26T02:06:08.224Z,0.00
2022-09-26T02:07:08.814Z,0.00
2022-09-26T02:08:09.384Z,0.00
2022-09-26T02:09:09.947Z,0.00
2022-09-26T02:10:10.507Z,0.00
2022-09-26T02:11:11.170Z,0.00
2022-09-26T02:12:11.737Z,0.00
2022-09-26T02:13:12.320Z,0.00
2022-09-26T02:14:12.899Z,0.00
2022-09-26T02:15:13.474Z,0.00
2022-09-26T02:16:14.225Z,0.00
2022-09-26T02:17:14.843Z,0.00
2022-09-26T02:18:15.417Z,0.00
2022-09-26T02:19:16.043Z,0.00
2022-09-26T02:20:16.639Z,0.00
2022-09-26T02:21:17.262Z,0.00
2022-09-26T02:22:17.846Z,0.00
2022-09-26T02:23:18.407Z,0.00
2022-09-26T02:24:18.967Z,0.00
2022-09-26T02:25:19.541Z,0.00
2022-09-26T02:26:20.139Z,0.00
2022-09-26T02:27:20.704Z,0.00
2022-09-26T02:28:21.269Z,0.00
2022-09-26T02:29:21.831Z,0.00
2022-09-26T02:30:22.392Z,0.00
2022-09-26T02:31:23.094Z,0.00
2022-09-26T02:32:23.710Z,0.00
2022-09-26T02:33:24.281Z,0.00
2022-09-26T02:34:24.850Z,0.00
2022-09-26T02:35:25.407Z,0.00
2022-09-26T02:36:26.021Z,0.00
2022-09-26T02:37:26.622Z,0.00
2022-09-26T02:38:27.188Z,0.00
2022-09-26T02:39:27.757Z,0.00
2022-09-26T02:40:28.364Z,0.00
2022-09-26T02:41:29.129Z,0.00
2022-09-26T02:42:29.703Z,0.00
2022-09-26T02:43:30.298Z,0.00
2022-09-26T02:44:30.865Z,0.00
2022-09-26T02:45:31.503Z,0.00
2022-09-26T02:46:32.218Z,0.00
2022-09-26T02:47:32.781Z,0.00
2022-09-26T02:48:33.341Z,0.00
2022-09-26T02:49:33.903Z,0.00
2022-09-26T02:50:34.464Z,0.00
2022-09-26T02:51:35.135Z,0.00
2022-09-26T02:52:35.723Z,0.00
2022-09-26T02:53:36.296Z,0.00
2022-09-26T02:54:36.865Z,0.00
2022-09-26T02:55:37.426Z,0.00
2022-09-26T02:56:38.035Z,0.00
2022-09-26T02:57:38.605Z,0.00
2022-09-26T02:58:39.177Z,0.00
2022-09-26T02:59:39.741Z,0.00
2022-09-26T03:00:40.369Z,0.00
2022-09-26T03:01:41.167Z,0.00
2022-09-26T03:02:41.786Z,0.00
2022-09-26T03:03:42.410Z,0.00
2022-09-26T03:04:43.105Z,0.00
2022-09-26T03:05:43.744Z,0.00
2022-09-26T03:06:44.340Z,0.00
2022-09-26T03:07:44.923Z,0.00
2022-09-26T03:08:45.483Z,0.00
2022-09-26T03:09:46.038Z,0.00
2022-09-26T03:10:46.603Z,0.00
2022-09-26T03:11:47.198Z,0.00
2022-09-26T03:12:47.773Z,0.00
2022-09-26T03:13:48.345Z,0.00
2022-09-26T03:14:48.907Z,0.00
2022-09-26T03:15:49.484Z,0.00
2022-09-26T03:16:50.256Z,0.00
2022-09-26T03:17:50.865Z,0.00
2022-09-26T03:18:51.432Z,0.00
2022-09-26T03:19:51.996Z,0.00
2022-09-26T03:20:52.597Z,0.00
2022-09-26T03:22:16.564Z,0.00
2022-09-26T03:22:53.837Z,0.00
2022-09-26T03:23:54.404Z,0.00
2022-09-26T03:24:54.971Z,0.00
2022-09-26T03:25:55.534Z,0.00
2022-09-26T03:26:56.134Z,0.00
2022-09-26T03:27:56.702Z,0.00
2022-09-26T03:28:57.306Z,0.00
2022-09-26T03:29:57.872Z,0.00
2022-09-26T03:30:58.443Z,0.00
2022-09-26T03:31:59.093Z,0.00
2022-09-26T03:32:59.742Z,0.00
2022-09-26T03:34:00.359Z,0.00
2022-09-26T03:35:00.922Z,0.00
2022-09-26T03:36:01.502Z,0.00
2022-09-26T03:37:02.057Z,0.00
2022-09-26T03:38:02.655Z,0.00
2022-09-26T03:39:03.257Z,0.00
2022-09-26T03:40:03.824Z,0.00
2022-09-26T03:41:04.461Z,0.00
2022-09-26T03:42:05.137Z,0.00
2022-09-26T03:43:05.698Z,0.00
2022-09-26T03:44:06.302Z,0.00
2022-09-26T03:45:06.887Z,0.00
2022-09-26T03:46:07.573Z,0.00
2022-09-26T03:47:08.208Z,0.00
2022-09-26T03:48:08.777Z,0.00
2022-09-26T03:49:09.571Z,0.00
2022-09-26T03:50:10.136Z,1.00
2022-09-26T03:51:10.712Z,0.00
2022-09-26T03:52:11.275Z,0.00
2022-09-26T03:53:11.860Z,0.00
2022-09-26T03:54:12.522Z,0.00
2022-09-26T03:55:13.089Z,0.00
2022-09-26T03:56:13.613Z,3.00
2022-09-26T03:57:14.126Z,1.00
2022-09-26T03:58:14.639Z,4.00
2022-09-26T03:59:15.294Z,2.00
2022-09-26T04:00:15.921Z,2.00
2022-09-26T04:01:16.581Z,3.00
2022-09-26T04:02:17.335Z,4.00
2022-09-26T04:03:17.921Z,4.00
2022-09-26T04:04:18.516Z,6.00
2022-09-26T04:05:19.025Z,9.00
2022-09-26T04:06:19.539Z,12.00
2022-09-26T04:07:20.042Z,14.00
2022-09-26T04:08:20.577Z,19.00
2022-09-26T04:09:21.434Z,27.00
2022-09-26T04:10:21.712Z,31.00
2022-09-26T04:11:22.225Z,36.00
2022-09-26T04:12:22.731Z,44.00
2022-09-26T04:13:46.926Z,55.00
2022-09-26T04:14:24.131Z,64.00
2022-09-26T04:15:24.661Z,77.00
2022-09-26T04:16:25.205Z,84.00
2022-09-26T04:17:25.772Z,95.00
2022-09-26T04:18:26.286Z,114.00
2022-09-26T04:19:26.911Z,130.00
2022-09-26T04:20:27.417Z,140.00
2022-09-26T04:21:27.928Z,158.00
2022-09-26T04:22:28.437Z,175.00
2022-09-26T04:23:29.064Z,191.00
2022-09-26T04:24:29.612Z,212.00
2022-09-26T04:25:30.124Z,234.00
2022-09-26T04:26:30.776Z,258.00
2022-09-26T04:27:31.425Z,273.00
2022-09-26T04:28:31.941Z,293.00
2022-09-26T04:29:32.484Z,315.00
2022-09-26T04:30:33.022Z,334.00
2022-09-26T04:31:33.615Z,356.00
2022-09-26T04:32:34.145Z,379.00
2022-09-26T04:33:38.024Z,401.00
2022-09-26T04:34:35.257Z,424.00
2022-09-26T04:35:36.586Z,443.00
2022-09-26T04:36:36.609Z,465.00
2022-09-26T04:37:37.380Z,476.00
2022-09-26T04:38:37.970Z,497.00
2022-09-26T04:39:38.714Z,511.00
2022-09-26T04:40:42.677Z,535.00
2022-09-26T04:41:39.859Z,548.00
2022-09-26T04:42:40.375Z,563.00
2022-09-26T04:43:41.449Z,583.00
2022-09-26T04:44:50.521Z,598.00
2022-09-26T04:45:42.291Z,621.00
2022-09-26T04:46:42.848Z,640.00
2022-09-26T04:47:44.764Z,665.00
2022-09-26T04:48:45.916Z,693.00
2022-09-26T04:49:45.095Z,707.00
2022-09-26T04:50:45.601Z,738.00
2022-09-26T04:51:47.780Z,774.00
2022-09-26T04:52:47.545Z,766.00
2022-09-26T04:53:48.180Z,425.00
2022-09-26T04:54:48.789Z,686.00
2022-09-26T04:55:49.293Z,1284.00
2022-09-26T04:56:49.810Z,1994.00
2022-09-26T04:57:50.548Z,2846.00
2022-09-26T04:58:51.392Z,2843.00
2022-09-26T04:59:51.941Z,2866.00
2022-09-26T05:00:52.540Z,3043.00
2022-09-26T05:01:53.170Z,3505.00
2022-09-26T05:02:53.717Z,3502.00
2022-09-26T05:03:54.255Z,3646.00
2022-09-26T05:04:54.868Z,3812.00
2022-09-26T05:06:00.847Z,3851.00
2022-09-26T05:06:58.516Z,4046.00
2022-09-26T05:07:58.470Z,4137.00
2022-09-26T05:08:58.742Z,5574.00
2022-09-26T05:09:58.784Z,7214.00
2022-09-26T05:10:59.298Z,4524.00
2022-09-26T05:11:59.850Z,2107.00
2022-09-26T05:13:04.451Z,1301.00
2022-09-26T05:14:06.292Z,1260.00
2022-09-26T05:15:06.591Z,1248.00
2022-09-26T05:16:02.427Z,1244.00
2022-09-26T05:17:05.486Z,1248.00
2022-09-26T05:18:04.262Z,1246.00
2022-09-26T05:19:04.807Z,1248.00
2022-09-26T05:20:05.687Z,1254.00
2022-09-26T05:21:23.655Z,1260.00
2022-09-26T05:22:06.761Z,1272.00
2022-09-26T05:23:07.272Z,1277.00
2022-09-26T05:24:07.809Z,1288.00
2022-09-26T05:25:08.376Z,1303.00
2022-09-26T05:26:08.886Z,1312.00
2022-09-26T05:27:09.400Z,1322.00
2022-09-26T05:28:09.922Z,1332.00
2022-09-26T05:29:10.606Z,1341.00
2022-09-26T05:30:29.746Z,1352.00
2022-09-26T05:31:12.239Z,1363.00
2022-09-26T05:32:12.284Z,1381.00
2022-09-26T05:33:12.800Z,1399.00
2022-09-26T05:34:18.715Z,1405.00
2022-09-26T05:35:14.181Z,1424.00
2022-09-26T05:36:14.727Z,1435.00
2022-09-26T05:37:15.242Z,1443.00
2022-09-26T05:38:15.754Z,1459.00
2022-09-26T05:39:16.288Z,1473.00
2022-09-26T05:40:17.059Z,1487.00
2022-09-26T05:41:17.623Z,1501.00
2022-09-26T05:42:18.129Z,1513.00
2022-09-26T05:43:18.646Z,1524.00
2022-09-26T05:44:19.203Z,1535.00
2022-09-26T05:45:19.748Z,1544.00
2022-09-26T05:46:20.292Z,1561.00
2022-09-26T05:47:20.910Z,1575.00
2022-09-26T05:48:21.417Z,1587.00
2022-09-26T05:49:25.761Z,1602.00
2022-09-26T05:50:22.978Z,1611.00
2022-09-26T05:51:23.667Z,1626.00
2022-09-26T05:52:24.186Z,1641.00
2022-09-26T05:53:24.704Z,1657.00
2022-09-26T05:54:25.290Z,1669.00
2022-09-26T05:55:25.889Z,1685.00
2022-09-26T05:56:26.393Z,1713.00
2022-09-26T05:57:26.902Z,1727.00
2022-09-26T05:58:27.419Z,1744.00
2022-09-26T05:59:27.938Z,1762.00
2022-09-26T06:00:34.736Z,1778.00
2022-09-26T06:01:29.499Z,1795.00
2022-09-26T06:02:29.668Z,1815.00
2022-09-26T06:09:17.336Z,2028.00
2022-09-26T06:09:57.811Z,1988.00
2022-09-26T06:10:58.806Z,2020.00
2022-09-26T06:12:05.017Z,2039.00
2022-09-26T06:12:59.808Z,2061.00
2022-09-26T06:14:00.319Z,2083.00
2022-09-26T06:15:00.891Z,2108.00
2022-09-26T06:16:01.545Z,2130.00
2022-09-26T06:17:02.099Z,2147.00
2022-09-26T06:18:02.629Z,2167.00
2022-09-26T06:19:03.149Z,2190.00
2022-09-26T06:20:03.783Z,2216.00
2022-09-26T06:21:04.309Z,2235.00
2022-09-26T06:22:04.821Z,2261.00
2022-09-26T06:23:05.378Z,2285.00
2022-09-26T06:24:05.920Z,2299.00
2022-09-26T06:25:06.587Z,2329.00
2022-09-26T06:26:07.715Z,2343.00
2022-09-26T06:27:07.736Z,2360.00
2022-09-26T06:28:08.247Z,2395.00
2022-09-26T06:29:08.871Z,2424.00
2022-09-26T06:30:09.414Z,2446.00
2022-09-26T06:31:10.051Z,2462.00
2022-09-26T06:32:10.655Z,2487.00
2022-09-26T06:33:11.176Z,2530.00
2022-09-26T06:34:11.737Z,2530.00
2022-09-26T06:35:12.355Z,2554.00
2022-09-26T06:36:12.898Z,2580.00
2022-09-26T06:37:13.666Z,2597.00
2022-09-26T06:38:13.951Z,2624.00
2022-09-26T06:39:14.642Z,2649.00
2022-09-26T06:40:15.395Z,2664.00
2022-09-26T06:41:15.944Z,2699.00
2022-09-26T06:42:16.900Z,2722.00
2022-09-26T06:43:17.409Z,2745.00
2022-09-26T06:44:17.923Z,2771.00
2022-09-26T06:45:18.469Z,2782.00
2022-09-26T06:46:19.126Z,2805.00
2022-09-26T06:47:19.757Z,2825.00
2022-09-26T06:48:24.400Z,2861.00
2022-09-26T06:49:21.247Z,2879.00
2022-09-26T06:50:21.857Z,2914.00
2022-09-26T06:51:22.471Z,2924.00
2022-09-26T06:52:23.047Z,2948.00
2022-09-26T06:53:23.559Z,2981.00
2022-09-26T06:54:24.104Z,2995.00
2022-09-26T06:55:24.733Z,3036.00
2022-09-26T06:56:25.771Z,3041.00
2022-09-26T06:57:25.785Z,3089.00
2022-09-26T06:58:26.297Z,3097.00
2022-09-26T06:59:26.811Z,3127.00
2022-09-26T07:00:32.341Z,3152.00
2022-09-26T07:01:34.521Z,3181.00
2022-09-26T07:02:30.784Z,3189.00
2022-09-26T07:03:29.616Z,3218.00
2022-09-26T07:04:30.163Z,3246.00
2022-09-26T07:05:30.735Z,3266.00
2022-09-26T07:06:31.286Z,3296.00
2022-09-26T07:07:31.793Z,3303.00
2022-09-26T07:09:00.417Z,3340.00
2022-09-26T07:09:33.222Z,3367.00
2022-09-26T07:10:33.990Z,3376.00
2022-09-26T07:11:56.304Z,3395.00
2022-09-26T07:12:35.490Z,3434.00
2022-09-26T07:13:35.993Z,3450.00
2022-09-26T07:14:36.899Z,3467.00
2022-09-26T07:15:37.440Z,3478.00
2022-09-26T07:16:38.144Z,3505.00
2022-09-26T07:17:38.684Z,3529.00
2022-09-26T07:18:39.192Z,3556.00
2022-09-26T07:19:39.709Z,3566.00
2022-09-26T07:20:40.271Z,3597.00
2022-09-26T07:21:40.779Z,3613.00
2022-09-26T07:22:41.291Z,3628.00
2022-09-26T07:23:41.796Z,3664.00
2022-09-26T07:24:42.302Z,3662.00
2022-09-26T07:25:45.224Z,3697.00
2022-09-26T07:26:43.755Z,3709.00
2022-09-26T07:27:44.279Z,3727.00
2022-09-26T07:28:45.185Z,3747.00
2022-09-26T07:29:45.577Z,3780.00
2022-09-26T07:30:46.188Z,3813.00
2022-09-26T07:31:46.930Z,3816.00
2022-09-26T07:32:47.533Z,3855.00
2022-09-26T07:33:48.044Z,3856.00
2022-09-26T07:34:48.555Z,3868.00
2022-09-26T07:35:49.112Z,3882.00
2022-09-26T07:36:51.631Z,3905.00
2022-09-26T07:37:50.148Z,3898.00
2022-09-26T07:38:50.657Z,3898.00
2022-09-26T07:39:54.117Z,3933.00
2022-09-26T07:40:52.160Z,3945.00
2022-09-26T07:41:52.710Z,3962.00
2022-09-26T07:43:09.576Z,3986.00
2022-09-26T07:44:53.344Z,4195.00
2022-09-26T07:45:24.259Z,3898.00
2022-09-26T07:45:55.844Z,4033.00
2022-09-26T07:46:56.413Z,3888.00
2022-09-26T07:47:56.951Z,3938.00
2022-09-26T07:48:57.467Z,4064.00
2022-09-26T07:49:58.078Z,3998.00
2022-09-26T07:50:58.628Z,4170.00
2022-09-26T07:51:59.264Z,4124.00
2022-09-26T07:53:00.593Z,4089.00
2022-09-26T07:54:00.727Z,4083.00
2022-09-26T07:55:01.325Z,4226.00
2022-09-26T07:56:01.921Z,4025.00
2022-09-26T07:57:02.493Z,4262.00
2022-09-26T07:58:03.050Z,4314.00
2022-09-26T07:59:03.679Z,4135.00
2022-09-26T08:00:04.191Z,4683.00
2022-09-26T08:01:04.778Z,3822.00
2022-09-26T08:02:05.450Z,4196.00
2022-09-26T08:03:06.089Z,4333.00
2022-09-26T08:04:07.107Z,4307.00
2022-09-26T08:05:07.271Z,4352.00
2022-09-26T08:06:07.824Z,4254.00
2022-09-26T08:07:08.342Z,4457.00
2022-09-26T08:08:08.866Z,4230.00
2022-09-26T08:09:09.516Z,4398.00
2022-09-26T08:10:10.051Z,4707.00
2022-09-26T08:11:10.668Z,4077.00
2022-09-26T08:12:11.169Z,4693.00
2022-09-26T08:13:11.747Z,4330.00
2022-09-26T08:14:12.985Z,4242.00
2022-09-26T08:15:13.031Z,4033.00
2022-09-26T08:16:13.647Z,4606.00
2022-09-26T08:17:14.595Z,4835.00
2022-09-26T08:18:15.221Z,4266.00
2022-09-26T08:19:15.938Z,4266.00
2022-09-26T08:20:16.543Z,4290.00
2022-09-26T08:21:17.194Z,4628.00
2022-09-26T08:22:17.855Z,4248.00
2022-09-26T08:23:18.363Z,4776.00
2022-09-26T08:24:19.164Z,4611.00
2022-09-26T08:25:19.672Z,4603.00
2022-09-26T08:26:21.012Z,4939.00
2022-09-26T08:27:21.550Z,4388.00
2022-09-26T08:28:21.648Z,4938.00
2022-09-26T08:29:22.181Z,5123.00
2022-09-26T08:30:23.023Z,5265.00
2022-09-26T08:31:23.621Z,4372.00
2022-09-26T08:32:24.207Z,4708.00
2022-09-26T08:33:24.772Z,5820.00
2022-09-26T08:34:26.011Z,3828.00
2022-09-26T08:35:26.537Z,5485.00
2022-09-26T08:36:27.079Z,4482.00
2022-09-26T08:37:27.656Z,4608.00
2022-09-26T08:38:28.280Z,4054.00
2022-09-26T08:39:33.270Z,4536.00
2022-09-26T08:40:30.158Z,4744.00
2022-09-26T08:41:30.886Z,4799.00
2022-09-26T08:42:40.097Z,5249.00
2022-09-26T08:43:39.530Z,4738.00
2022-09-26T08:44:34.068Z,5168.00
2022-09-26T08:45:46.703Z,5267.00
2022-09-26T08:46:34.809Z,5007.00
2022-09-26T08:47:53.362Z,4496.00
2022-09-26T08:48:47.842Z,5029.00
2022-09-26T08:49:36.505Z,5004.00
2022-09-26T08:50:40.341Z,4994.00
2022-09-26T08:51:37.603Z,4985.00
2022-09-26T08:52:38.481Z,4914.00
2022-09-26T08:53:38.993Z,4936.00
2022-09-26T08:54:39.512Z,4941.00
2022-09-26T08:55:40.007Z,4938.00
2022-09-26T08:56:40.589Z,4944.00
2022-09-26T08:57:41.101Z,4942.00
2022-09-26T08:58:41.610Z,4930.00
2022-09-26T08:59:42.129Z,4940.00
2022-09-26T09:00:42.639Z,4929.00
2022-09-26T09:01:43.357Z,4930.00
2022-09-26T09:02:44.810Z,4922.00
2022-09-26T09:03:44.918Z,4924.00
2022-09-26T09:04:49.116Z,4934.00
2022-09-26T09:05:45.999Z,4909.00
2022-09-26T09:06:49.716Z,4923.00
2022-09-26T09:07:47.979Z,4914.00
2022-09-26T09:08:48.041Z,4920.00
2022-09-26T09:09:48.565Z,4916.00
2022-09-26T09:10:49.435Z,4921.00
2022-09-26T09:11:51.235Z,4913.00
2022-09-26T09:12:50.980Z,4910.00
2022-09-26T09:13:51.516Z,4919.00
2022-09-26T09:15:13.855Z,4907.00
2022-09-26T09:15:52.914Z,4917.00
2022-09-26T09:16:54.032Z,4940.00
2022-09-26T09:17:54.034Z,4965.00
2022-09-26T09:18:54.566Z,4927.00
2022-09-26T09:19:55.075Z,4972.00
2022-09-26T09:20:55.591Z,4983.00
2022-09-26T09:21:56.142Z,5021.00
2022-09-26T09:22:56.667Z,5026.00
2022-09-26T09:23:57.188Z,5035.00
2022-09-26T09:24:57.701Z,5051.00
2022-09-26T09:27:52.244Z,5068.00
2022-09-26T09:28:05.499Z,5138.00
2022-09-26T09:29:10.245Z,5170.00
2022-09-26T09:30:01.517Z,5165.00
2022-09-26T09:31:02.190Z,5231.00
2022-09-26T09:32:05.169Z,5295.00
2022-09-26T09:33:05.083Z,5314.00
2022-09-26T09:34:04.655Z,5279.00
2022-09-26T09:35:05.597Z,5363.00
2022-09-26T09:36:07.220Z,5356.00
2022-09-26T09:37:06.852Z,5344.00
2022-09-26T09:38:08.506Z,5421.00
2022-09-26T09:39:08.339Z,5429.00
2022-09-26T09:40:08.965Z,5467.00
2022-09-26T09:41:09.476Z,5460.00
2022-09-26T09:42:12.211Z,5428.00
2022-09-26T09:43:10.708Z,5414.00
2022-09-26T09:44:11.220Z,5392.00
2022-09-26T09:45:11.726Z,5406.00
2022-09-26T09:46:12.298Z,5371.00
2022-09-26T09:47:12.861Z,5346.00
2022-09-26T09:48:13.379Z,5327.00
2022-09-26T09:49:13.894Z,5332.00
2022-09-26T09:50:14.402Z,5325.00
2022-09-26T09:51:14.916Z,5342.00
2022-09-26T09:52:15.468Z,5328.00
2022-09-26T09:53:15.974Z,5342.00
2022-09-26T09:54:16.490Z,5353.00
2022-09-26T09:55:20.059Z,5404.00
2022-09-26T09:56:17.674Z,5360.00
2022-09-26T09:57:18.249Z,5387.00
2022-09-26T09:58:18.758Z,5397.00
2022-09-26T09:59:19.265Z,5373.00
2022-09-26T10:00:19.778Z,5401.00
2022-09-26T10:01:38.773Z,5403.00
2022-09-26T10:04:09.752Z,5465.00
2022-09-26T10:05:11.264Z,5468.00
2022-09-26T10:06:43.960Z,5447.00
2022-09-26T10:07:12.632Z,5497.00
2022-09-26T10:08:13.279Z,5478.00
2022-09-26T10:09:38.844Z,5495.00
2022-09-26T10:10:14.815Z,5493.00
2022-09-26T10:11:15.400Z,5522.00
2022-09-26T10:12:15.908Z,5533.00
2022-09-26T10:13:20.650Z,5535.00
2022-09-26T10:14:17.162Z,5601.00
2022-09-26T10:15:20.661Z,5596.00
2022-09-26T10:16:18.306Z,5596.00
2022-09-26T10:17:18.822Z,5620.00
2022-09-26T10:18:24.793Z,5626.00
2022-09-26T10:19:20.154Z,5619.00
2022-09-26T10:20:20.667Z,5700.00
2022-09-26T10:21:21.173Z,5700.00
2022-09-26T10:22:21.688Z,5701.00
2022-09-26T10:23:22.360Z,5749.00
2022-09-26T10:24:22.874Z,5764.00
2022-09-26T10:25:23.394Z,5769.00
2022-09-26T10:26:26.558Z,5760.00
2022-09-26T10:27:24.758Z,5787.00
2022-09-26T10:28:25.330Z,5789.00
2022-09-26T10:29:25.846Z,5836.00
2022-09-26T10:30:26.371Z,5820.00
2022-09-26T10:31:26.979Z,5859.00
2022-09-26T10:32:27.545Z,5840.00
2022-09-26T10:33:28.093Z,5862.00
2022-09-26T10:34:31.460Z,5883.00
2022-09-26T10:35:29.467Z,5896.00
2022-09-26T10:36:29.988Z,5925.00
2022-09-26T10:37:30.503Z,5929.00
2022-09-26T10:38:31.067Z,5939.00
2022-09-26T10:39:31.587Z,5943.00
2022-09-26T10:40:32.145Z,5971.00
2022-09-26T10:41:32.682Z,5986.00
2022-09-26T10:42:33.200Z,5989.00
2022-09-26T10:43:33.778Z,5986.00
2022-09-26T10:44:34.298Z,6026.00
2022-09-26T10:45:34.811Z,6051.00
2022-09-26T10:46:35.440Z,6067.00
2022-09-26T10:47:35.985Z,6085.00
2022-09-26T10:48:36.535Z,6100.00
2022-09-26T10:49:37.051Z,6130.00
2022-09-26T10:50:37.568Z,6171.00
2022-09-26T10:51:38.089Z,6182.00
2022-09-26T10:52:38.604Z,6234.00
2022-09-26T10:53:39.222Z,6260.00
2022-09-26T10:54:39.729Z,6294.00
2022-09-26T10:55:40.249Z,6332.00
2022-09-26T10:56:40.771Z,6362.00
2022-09-26T10:57:41.285Z,6423.00
2022-09-26T10:58:41.865Z,6447.00
2022-09-26T10:59:42.383Z,6485.00
2022-09-26T11:00:42.902Z,6544.00
2022-09-26T11:01:43.549Z,6627.00
2022-09-26T11:02:44.129Z,6542.00
2022-09-26T11:03:44.900Z,6727.00
2022-09-26T11:04:45.440Z,6367.00
2022-09-26T11:05:45.958Z,6671.00
2022-09-26T11:06:46.477Z,6751.00
2022-09-26T11:07:46.994Z,6785.00
2022-09-26T11:08:47.719Z,6891.00
2022-09-26T11:09:48.287Z,7172.00
2022-09-26T11:10:48.805Z,6919.00
2022-09-26T11:11:49.330Z,6918.00
2022-09-26T11:12:49.850Z,7145.00
2022-09-26T11:13:50.486Z,7247.00
2022-09-26T11:14:51.005Z,7291.00
2022-09-26T11:15:51.607Z,7368.00
2022-09-26T11:16:52.183Z,7617.00
2022-09-26T11:17:52.702Z,8261.00
2022-09-26T11:18:53.257Z,6566.00
2022-09-26T11:19:55.060Z,7605.00
2022-09-26T11:20:54.756Z,7837.00
2022-09-26T11:21:55.278Z,7756.00
2022-09-26T11:22:55.792Z,7993.00
2022-09-26T11:23:56.353Z,7971.00
2022-09-26T11:24:56.883Z,7925.00
2022-09-26T11:25:58.304Z,7671.00
2022-09-26T11:26:58.392Z,7683.00
2022-09-26T11:27:58.912Z,7538.00
2022-09-26T11:28:59.615Z,8217.00
2022-09-26T11:30:00.159Z,9930.00
2022-09-26T11:31:00.776Z,9958.00
2022-09-26T11:32:01.361Z,13995.00
2022-09-26T11:33:01.893Z,15512.00
2022-09-26T11:34:02.457Z,12746.00
2022-09-26T11:35:03.137Z,12775.00
2022-09-26T11:36:03.831Z,27238.00
2022-09-26T11:37:04.350Z,75756.00
2022-09-26T11:38:04.867Z,75610.00
2022-09-26T11:39:05.438Z,78573.00
2022-09-26T11:40:09.522Z,80042.00
2022-09-26T11:41:06.517Z,79761.00
2022-09-26T11:42:07.033Z,81695.00
2022-09-26T11:43:07.576Z,81406.00
2022-09-26T11:44:08.169Z,81474.00
2022-09-26T11:45:08.686Z,79253.00
2022-09-26T11:46:09.258Z,77466.00
2022-09-26T11:47:09.819Z,81467.00
2022-09-26T11:48:13.285Z,77181.00
2022-09-26T11:49:11.342Z,82814.00
2022-09-26T11:50:11.862Z,79105.00
2022-09-26T11:51:12.406Z,83438.00
2022-09-26T11:52:12.937Z,82925.00
2022-09-26T11:53:13.448Z,83319.00
2022-09-26T11:54:14.224Z,80481.00
2022-09-26T11:55:14.901Z,83544.00
2022-09-26T11:56:15.415Z,82885.00
2022-09-26T11:57:16.468Z,83459.00
2022-09-26T11:58:16.953Z,80152.00
2022-09-26T11:59:17.723Z,83735.00
2022-09-26T12:00:18.249Z,83373.00
2022-09-26T12:01:18.774Z,83669.00
2022-09-26T12:02:19.427Z,80747.00
2022-09-26T12:03:20.307Z,81555.00
2022-09-26T12:04:21.188Z,78082.00
2022-09-26T12:05:26.655Z,78982.00
2022-09-26T12:06:22.591Z,77616.00
2022-09-26T12:07:23.113Z,78639.00
2022-09-26T12:08:23.634Z,76155.00
2022-09-26T12:09:24.660Z,78788.00
2022-09-26T12:10:24.681Z,78610.00
2022-09-26T12:11:25.200Z,83958.00
2022-09-26T12:12:25.731Z,76695.00
2022-09-26T12:13:26.248Z,75759.00
2022-09-26T12:14:26.875Z,76954.00
2022-09-26T12:15:27.388Z,77459.00
2022-09-26T12:16:27.952Z,78187.00
2022-09-26T12:17:28.504Z,76147.00
2022-09-26T12:18:29.017Z,75769.00
2022-09-26T12:19:29.904Z,75366.00
2022-09-26T12:20:30.492Z,75315.00
2022-09-26T12:21:31.392Z,76075.00
2022-09-26T12:22:31.923Z,76112.00
2022-09-26T12:23:32.440Z,75341.00
2022-09-26T12:24:32.995Z,75079.00
2022-09-26T12:25:33.524Z,75390.00
2022-09-26T12:26:34.033Z,75353.00
2022-09-26T12:27:34.554Z,75136.00
2022-09-26T12:28:35.076Z,74856.00
2022-09-26T12:29:35.664Z,74845.00
2022-09-26T12:30:36.173Z,74942.00
2022-09-26T12:31:36.791Z,75020.00
2022-09-26T12:32:37.387Z,75075.00
2022-09-26T12:33:37.906Z,75075.00
2022-09-26T12:34:38.456Z,75023.00
2022-09-26T12:35:38.975Z,75030.00
2022-09-26T12:36:39.498Z,75211.00
2022-09-26T12:37:40.023Z,76313.00
2022-09-26T12:38:40.545Z,78174.00
2022-09-26T12:39:41.126Z,80421.00
2022-09-26T12:40:41.702Z,80991.00
2022-09-26T12:41:42.283Z,80255.00
2022-09-26T12:42:42.797Z,80105.00
2022-09-26T12:43:43.319Z,79038.00